banner livro

Resumo do que eu andei Twittando em 2010-12-11

  • @asasdabahia é o freeware do KSBT? Excelente modelo, voa muito bem. #
  • Chove canivetes e raios neste momento em Gru. (@ Aeroporto Internacional de São Paulo / Guarulho…) http://picplz.com/z7xj #
  • Thunderstorms –>> Metar de GRU SP 1833 111830Z 15006KT 9000 TS BKN040 FEW045CB BKN100 29/21 Q1010 #
  • Instalei um plug-in no blog que se der certo vai publicar um resumo dos tweets do Aviões e Músicas toda tarde, pra quem não tem twitter. #
  • @rcobrabr hahaha é condição meteorológica no aeroporto, em código fácil de entender rs #
  • @rcobrabr por aí rs no caso de hoje não muito vento mas muitos raios . #

Tags:

Sobre o Autor

Graduado em Manutenção de Aeronaves, com muito bom senso :) 30 anos de aviação comercial (e contando), de Lockheed Electra à Boeing 787. Tentando simplificar a complexidade da aviação.
Topo